West Village, Colorado
Current Conditions -  °F | °C
As of 6:53 AM on Thursday 30 Oct 2014 (Local Time) from KASE Reporting Station
Clear Clear  
Wind Chill: 20°   Ceiling: Unl
Heat Index: 27°   Visibility: 10mi
Dew Point: 18°   Wind: 6mph
Humidity: 69%   Direction: 210°SSW
Pressure: 30.43"   Gusts: NA
Location:  39.1905°N, 106.819°W
Report Text: KASE 301253Z 21005KT 10SM CLR M03/M08 A3043 RMK AO2 SLP285 T10281078
Loading
Personal Weather Stations






























Interactive Weather Map
Tropical Storm Tracking
New forecast layout! Learn more

10-Day Weather Forecast

Advertisements
Track Severe Weather on mobile